sensor_id;sensor_type;location;lat;lon;timestamp;temperature;humidity
6174;DHT22;3120;48.796;9.796;2022-08-25T00:01:09;18.10;99.90
6174;DHT22;3120;48.796;9.796;2022-08-25T00:03:35;18.10;99.90
6174;DHT22;3120;48.796;9.796;2022-08-25T00:06:03;18.00;99.90
6174;DHT22;3120;48.796;9.796;2022-08-25T00:08:29;18.00;99.90
6174;DHT22;3120;48.796;9.796;2022-08-25T00:10:55;18.00;99.90
6174;DHT22;3120;48.796;9.796;2022-08-25T00:13:20;17.90;99.90
6174;DHT22;3120;48.796;9.796;2022-08-25T00:15:46;17.90;99.90
6174;DHT22;3120;48.796;9.796;2022-08-25T00:18:12;17.90;99.90
6174;DHT22;3120;48.796;9.796;2022-08-25T00:20:37;17.90;99.90
6174;DHT22;3120;48.796;9.796;2022-08-25T00:23:03;17.90;99.90
6174;DHT22;3120;48.796;9.796;2022-08-25T00:25:29;17.90;99.90
6174;DHT22;3120;48.796;9.796;2022-08-25T00:27:54;17.90;99.90
6174;DHT22;3120;48.796;9.796;2022-08-25T00:30:21;17.90;99.90
6174;DHT22;3120;48.796;9.796;2022-08-25T00:32:47;17.80;99.90
6174;DHT22;3120;48.796;9.796;2022-08-25T00:35:13;17.80;99.90
6174;DHT22;3120;48.796;9.796;2022-08-25T00:37:38;17.80;99.90
6174;DHT22;3120;48.796;9.796;2022-08-25T00:40:05;17.80;99.90
6174;DHT22;3120;48.796;9.796;2022-08-25T00:42:34;17.80;99.90
6174;DHT22;3120;48.796;9.796;2022-08-25T00:45:00;17.70;99.90
6174;DHT22;3120;48.796;9.796;2022-08-25T00:47:26;17.70;99.90
6174;DHT22;3120;48.796;9.796;2022-08-25T00:49:57;17.70;99.90
6174;DHT22;3120;48.796;9.796;2022-08-25T00:52:27;17.70;99.90
6174;DHT22;3120;48.796;9.796;2022-08-25T00:54:58;17.60;99.90
6174;DHT22;3120;48.796;9.796;2022-08-25T00:57:35;17.60;99.90
6174;DHT22;3120;48.796;9.796;2022-08-25T01:00:14;17.60;99.90
6174;DHT22;3120;48.796;9.796;2022-08-25T01:02:41;17.50;99.90
6174;DHT22;3120;48.796;9.796;2022-08-25T01:05:07;17.50;99.90
6174;DHT22;3120;48.796;9.796;2022-08-25T01:07:33;17.40;99.90
6174;DHT22;3120;48.796;9.796;2022-08-25T01:10:00;17.40;99.90
6174;DHT22;3120;48.796;9.796;2022-08-25T01:12:25;17.40;99.90
6174;DHT22;3120;48.796;9.796;2022-08-25T01:14:52;17.40;99.90
6174;DHT22;3120;48.796;9.796;2022-08-25T01:17:18;17.60;99.90
6174;DHT22;3120;48.796;9.796;2022-08-25T01:19:46;17.30;99.90
6174;DHT22;3120;48.796;9.796;2022-08-25T01:22:11;17.20;99.90
6174;DHT22;3120;48.796;9.796;2022-08-25T01:24:51;17.20;99.90
6174;DHT22;3120;48.796;9.796;2022-08-25T01:27:20;17.20;99.90
6174;DHT22;3120;48.796;9.796;2022-08-25T01:29:46;17.20;99.90
6174;DHT22;3120;48.796;9.796;2022-08-25T01:32:12;17.10;99.90
6174;DHT22;3120;48.796;9.796;2022-08-25T01:34:41;17.10;99.90
6174;DHT22;3120;48.796;9.796;2022-08-25T01:37:08;17.10;99.90
6174;DHT22;3120;48.796;9.796;2022-08-25T01:39:34;17.10;99.90
6174;DHT22;3120;48.796;9.796;2022-08-25T01:44:41;17.00;99.90
6174;DHT22;3120;48.796;9.796;2022-08-25T01:47:08;16.90;99.90
6174;DHT22;3120;48.796;9.796;2022-08-25T01:49:34;16.90;99.90
6174;DHT22;3120;48.796;9.796;2022-08-25T01:52:23;16.90;99.90
6174;DHT22;3120;48.796;9.796;2022-08-25T01:54:49;16.90;99.90
6174;DHT22;3120;48.796;9.796;2022-08-25T01:57:15;16.80;99.90
6174;DHT22;3120;48.796;9.796;2022-08-25T01:59:44;17.00;99.90
6174;DHT22;3120;48.796;9.796;2022-08-25T02:02:10;16.80;99.90
6174;DHT22;3120;48.796;9.796;2022-08-25T02:04:39;16.80;99.90
6174;DHT22;3120;48.796;9.796;2022-08-25T02:07:06;16.80;99.90
6174;DHT22;3120;48.796;9.796;2022-08-25T02:09:32;16.70;99.90
6174;DHT22;3120;48.796;9.796;2022-08-25T02:11:58;16.70;99.90
6174;DHT22;3120;48.796;9.796;2022-08-25T02:14:24;16.60;99.90
6174;DHT22;3120;48.796;9.796;2022-08-25T02:16:52;16.70;99.90
6174;DHT22;3120;48.796;9.796;2022-08-25T02:19:19;16.60;99.90
6174;DHT22;3120;48.796;9.796;2022-08-25T02:21:45;16.50;99.90
6174;DHT22;3120;48.796;9.796;2022-08-25T02:24:12;16.50;99.90
6174;DHT22;3120;48.796;9.796;2022-08-25T02:26:38;16.40;99.90
6174;DHT22;3120;48.796;9.796;2022-08-25T02:29:05;16.40;99.90
6174;DHT22;3120;48.796;9.796;2022-08-25T02:31:32;16.30;99.90
6174;DHT22;3120;48.796;9.796;2022-08-25T02:33:58;16.30;99.90
6174;DHT22;3120;48.796;9.796;2022-08-25T02:36:24;16.30;99.90
6174;DHT22;3120;48.796;9.796;2022-08-25T02:38:51;16.30;99.90
6174;DHT22;3120;48.796;9.796;2022-08-25T02:41:22;16.20;99.90
6174;DHT22;3120;48.796;9.796;2022-08-25T02:43:49;16.20;99.90
6174;DHT22;3120;48.796;9.796;2022-08-25T02:46:17;16.10;99.90
6174;DHT22;3120;48.796;9.796;2022-08-25T02:48:44;16.10;99.90
6174;DHT22;3120;48.796;9.796;2022-08-25T02:51:10;16.10;99.90
6174;DHT22;3120;48.796;9.796;2022-08-25T02:53:37;16.10;99.90
6174;DHT22;3120;48.796;9.796;2022-08-25T02:56:05;16.10;99.90
6174;DHT22;3120;48.796;9.796;2022-08-25T02:58:32;16.10;99.90
6174;DHT22;3120;48.796;9.796;2022-08-25T03:00:57;16.00;99.90
6174;DHT22;3120;48.796;9.796;2022-08-25T03:03:23;16.00;99.90
6174;DHT22;3120;48.796;9.796;2022-08-25T03:05:49;16.00;99.90
6174;DHT22;3120;48.796;9.796;2022-08-25T03:08:15;16.00;99.90
6174;DHT22;3120;48.796;9.796;2022-08-25T03:10:40;16.00;99.90
6174;DHT22;3120;48.796;9.796;2022-08-25T03:13:06;16.00;99.90
6174;DHT22;3120;48.796;9.796;2022-08-25T03:15:32;16.00;99.90
6174;DHT22;3120;48.796;9.796;2022-08-25T03:17:58;16.00;99.90
6174;DHT22;3120;48.796;9.796;2022-08-25T03:20:24;16.00;99.90
6174;DHT22;3120;48.796;9.796;2022-08-25T03:22:51;16.00;99.90
6174;DHT22;3120;48.796;9.796;2022-08-25T03:25:17;15.90;99.90
6174;DHT22;3120;48.796;9.796;2022-08-25T03:28:02;16.00;99.90
6174;DHT22;3120;48.796;9.796;2022-08-25T03:30:28;16.00;99.90
6174;DHT22;3120;48.796;9.796;2022-08-25T03:32:54;16.00;99.90
6174;DHT22;3120;48.796;9.796;2022-08-25T03:35:21;15.80;99.90
6174;DHT22;3120;48.796;9.796;2022-08-25T03:37:46;15.70;99.90
6174;DHT22;3120;48.796;9.796;2022-08-25T03:40:14;15.70;99.90
6174;DHT22;3120;48.796;9.796;2022-08-25T03:42:42;15.70;99.90
6174;DHT22;3120;48.796;9.796;2022-08-25T03:45:09;15.70;99.90
6174;DHT22;3120;48.796;9.796;2022-08-25T03:47:38;15.70;99.90
6174;DHT22;3120;48.796;9.796;2022-08-25T03:50:09;15.70;99.90
6174;DHT22;3120;48.796;9.796;2022-08-25T03:52:35;15.60;99.90
6174;DHT22;3120;48.796;9.796;2022-08-25T03:55:07;15.60;99.90
6174;DHT22;3120;48.796;9.796;2022-08-25T03:57:33;15.60;99.90
6174;DHT22;3120;48.796;9.796;2022-08-25T03:59:59;15.50;99.90
6174;DHT22;3120;48.796;9.796;2022-08-25T04:02:24;15.60;99.90
6174;DHT22;3120;48.796;9.796;2022-08-25T04:04:50;15.50;99.90
6174;DHT22;3120;48.796;9.796;2022-08-25T04:07:16;15.50;99.90
6174;DHT22;3120;48.796;9.796;2022-08-25T04:09:41;15.50;99.90
6174;DHT22;3120;48.796;9.796;2022-08-25T04:12:07;15.40;99.90
6174;DHT22;3120;48.796;9.796;2022-08-25T04:14:34;15.50;99.90
6174;DHT22;3120;48.796;9.796;2022-08-25T04:17:00;15.50;99.90
6174;DHT22;3120;48.796;9.796;2022-08-25T04:19:25;15.80;99.90
6174;DHT22;3120;48.796;9.796;2022-08-25T04:21:51;15.80;99.90
6174;DHT22;3120;48.796;9.796;2022-08-25T04:24:17;15.50;99.90
6174;DHT22;3120;48.796;9.796;2022-08-25T04:26:46;15.50;99.90
6174;DHT22;3120;48.796;9.796;2022-08-25T04:29:14;15.50;99.90
6174;DHT22;3120;48.796;9.796;2022-08-25T04:31:42;15.50;99.90
6174;DHT22;3120;48.796;9.796;2022-08-25T04:34:08;15.80;99.90
6174;DHT22;3120;48.796;9.796;2022-08-25T04:36:34;15.50;99.90
6174;DHT22;3120;48.796;9.796;2022-08-25T04:39:00;15.50;99.90
6174;DHT22;3120;48.796;9.796;2022-08-25T04:41:26;15.50;99.90
6174;DHT22;3120;48.796;9.796;2022-08-25T04:43:56;15.60;99.90
6174;DHT22;3120;48.796;9.796;2022-08-25T04:46:24;15.50;99.90
6174;DHT22;3120;48.796;9.796;2022-08-25T04:48:51;15.50;99.90
6174;DHT22;3120;48.796;9.796;2022-08-25T04:51:30;15.50;99.90
6174;DHT22;3120;48.796;9.796;2022-08-25T04:53:58;15.50;99.90
6174;DHT22;3120;48.796;9.796;2022-08-25T04:56:25;15.60;99.90
6174;DHT22;3120;48.796;9.796;2022-08-25T04:58:52;15.50;99.90
6174;DHT22;3120;48.796;9.796;2022-08-25T05:01:22;15.50;99.90
6174;DHT22;3120;48.796;9.796;2022-08-25T05:03:56;15.50;99.90
6174;DHT22;3120;48.796;9.796;2022-08-25T05:06:22;15.40;99.90
6174;DHT22;3120;48.796;9.796;2022-08-25T05:08:48;15.60;99.90
6174;DHT22;3120;48.796;9.796;2022-08-25T05:11:15;15.40;99.90
6174;DHT22;3120;48.796;9.796;2022-08-25T05:13:43;15.50;99.90
6174;DHT22;3120;48.796;9.796;2022-08-25T05:16:09;15.60;99.90
6174;DHT22;3120;48.796;9.796;2022-08-25T05:18:35;15.70;99.90
6174;DHT22;3120;48.796;9.796;2022-08-25T05:21:03;15.70;99.90
6174;DHT22;3120;48.796;9.796;2022-08-25T05:23:29;15.90;99.90
6174;DHT22;3120;48.796;9.796;2022-08-25T05:25:54;16.00;99.90
6174;DHT22;3120;48.796;9.796;2022-08-25T05:28:21;16.10;99.90
6174;DHT22;3120;48.796;9.796;2022-08-25T05:30:47;16.50;99.90
6174;DHT22;3120;48.796;9.796;2022-08-25T05:33:17;16.30;99.90
6174;DHT22;3120;48.796;9.796;2022-08-25T05:35:43;16.40;99.90
6174;DHT22;3120;48.796;9.796;2022-08-25T05:38:09;17.00;99.90
6174;DHT22;3120;48.796;9.796;2022-08-25T05:40:35;16.60;99.90
6174;DHT22;3120;48.796;9.796;2022-08-25T05:43:00;16.70;99.90
6174;DHT22;3120;48.796;9.796;2022-08-25T05:45:26;16.80;99.90
6174;DHT22;3120;48.796;9.796;2022-08-25T05:47:51;16.80;99.90
6174;DHT22;3120;48.796;9.796;2022-08-25T05:50:17;16.90;99.90
6174;DHT22;3120;48.796;9.796;2022-08-25T05:52:44;17.10;99.90
6174;DHT22;3120;48.796;9.796;2022-08-25T05:55:11;17.10;99.90
6174;DHT22;3120;48.796;9.796;2022-08-25T05:57:36;17.20;99.90
6174;DHT22;3120;48.796;9.796;2022-08-25T06:00:04;17.20;99.90
6174;DHT22;3120;48.796;9.796;2022-08-25T06:02:30;17.40;99.90
6174;DHT22;3120;48.796;9.796;2022-08-25T06:05:16;17.50;99.90
6174;DHT22;3120;48.796;9.796;2022-08-25T06:07:46;17.60;99.90
6174;DHT22;3120;48.796;9.796;2022-08-25T06:10:13;17.60;99.90
6174;DHT22;3120;48.796;9.796;2022-08-25T06:12:41;17.70;99.90
6174;DHT22;3120;48.796;9.796;2022-08-25T06:15:18;17.80;99.90
6174;DHT22;3120;48.796;9.796;2022-08-25T06:17:45;17.90;99.90
6174;DHT22;3120;48.796;9.796;2022-08-25T06:20:14;17.90;99.90
6174;DHT22;3120;48.796;9.796;2022-08-25T06:22:40;18.00;99.90
6174;DHT22;3120;48.796;9.796;2022-08-25T06:25:07;18.80;99.90
6174;DHT22;3120;48.796;9.796;2022-08-25T06:27:34;18.20;99.90
6174;DHT22;3120;48.796;9.796;2022-08-25T06:30:00;18.30;99.90
6174;DHT22;3120;48.796;9.796;2022-08-25T06:32:30;18.50;99.90
6174;DHT22;3120;48.796;9.796;2022-08-25T06:34:57;18.60;99.90
6174;DHT22;3120;48.796;9.796;2022-08-25T06:37:23;18.70;99.90
6174;DHT22;3120;48.796;9.796;2022-08-25T06:39:49;18.90;99.90
6174;DHT22;3120;48.796;9.796;2022-08-25T06:42:15;19.00;99.90
6174;DHT22;3120;48.796;9.796;2022-08-25T06:44:41;19.20;99.90
6174;DHT22;3120;48.796;9.796;2022-08-25T06:47:06;19.40;99.90
6174;DHT22;3120;48.796;9.796;2022-08-25T06:49:32;19.90;97.40
6174;DHT22;3120;48.796;9.796;2022-08-25T06:51:57;20.50;1.00
6174;DHT22;3120;48.796;9.796;2022-08-25T06:54:23;20.80;1.00
6174;DHT22;3120;48.796;9.796;2022-08-25T06:56:49;21.10;1.00
6174;DHT22;3120;48.796;9.796;2022-08-25T06:59:15;21.60;1.00
6174;DHT22;3120;48.796;9.796;2022-08-25T07:01:42;22.40;99.90
6174;DHT22;3120;48.796;9.796;2022-08-25T07:04:07;23.10;99.90
6174;DHT22;3120;48.796;9.796;2022-08-25T07:06:33;23.70;1.00
6174;DHT22;3120;48.796;9.796;2022-08-25T07:09:00;24.40;99.90
6174;DHT22;3120;48.796;9.796;2022-08-25T07:11:27;25.40;1.00
6174;DHT22;3120;48.796;9.796;2022-08-25T07:13:53;26.10;99.90
6174;DHT22;3120;48.796;9.796;2022-08-25T07:16:19;26.90;1.00
6174;DHT22;3120;48.796;9.796;2022-08-25T07:18:46;27.20;99.90
6174;DHT22;3120;48.796;9.796;2022-08-25T07:21:12;27.30;1.00
6174;DHT22;3120;48.796;9.796;2022-08-25T07:23:40;27.20;99.90
6174;DHT22;3120;48.796;9.796;2022-08-25T07:26:10;27.00;1.00
6174;DHT22;3120;48.796;9.796;2022-08-25T07:28:36;27.30;99.90
6174;DHT22;3120;48.796;9.796;2022-08-25T07:31:03;27.90;99.90
6174;DHT22;3120;48.796;9.796;2022-08-25T07:33:29;28.00;99.90
6174;DHT22;3120;48.796;9.796;2022-08-25T07:35:54;28.00;99.90
6174;DHT22;3120;48.796;9.796;2022-08-25T07:38:20;28.00;99.90
6174;DHT22;3120;48.796;9.796;2022-08-25T07:40:46;28.10;99.90
6174;DHT22;3120;48.796;9.796;2022-08-25T07:43:19;28.00;99.90
6174;DHT22;3120;48.796;9.796;2022-08-25T07:45:45;28.10;99.90
6174;DHT22;3120;48.796;9.796;2022-08-25T07:48:11;28.60;75.60
6174;DHT22;3120;48.796;9.796;2022-08-25T07:50:40;28.80;24.70
6174;DHT22;3120;48.796;9.796;2022-08-25T07:53:10;28.90;22.80
6174;DHT22;3120;48.796;9.796;2022-08-25T07:55:36;28.60;38.10
6174;DHT22;3120;48.796;9.796;2022-08-25T07:58:04;28.40;78.00
6174;DHT22;3120;48.796;9.796;2022-08-25T08:00:30;28.30;48.40
6174;DHT22;3120;48.796;9.796;2022-08-25T08:03:00;28.30;99.90
6174;DHT22;3120;48.796;9.796;2022-08-25T08:05:28;28.50;91.20
6174;DHT22;3120;48.796;9.796;2022-08-25T08:07:54;28.00;99.90
6174;DHT22;3120;48.796;9.796;2022-08-25T08:10:20;27.70;99.90
6174;DHT22;3120;48.796;9.796;2022-08-25T08:12:47;27.90;99.90
6174;DHT22;3120;48.796;9.796;2022-08-25T08:15:14;28.10;99.90
6174;DHT22;3120;48.796;9.796;2022-08-25T08:17:40;27.90;93.60
6174;DHT22;3120;48.796;9.796;2022-08-25T08:20:07;28.40;43.30
6174;DHT22;3120;48.796;9.796;2022-08-25T08:22:38;28.80;1.00
6174;DHT22;3120;48.796;9.796;2022-08-25T08:25:06;28.90;1.00
6174;DHT22;3120;48.796;9.796;2022-08-25T08:27:32;28.80;6.50
6174;DHT22;3120;48.796;9.796;2022-08-25T08:29:58;28.70;1.00
6174;DHT22;3120;48.796;9.796;2022-08-25T08:32:24;28.50;1.00
6174;DHT22;3120;48.796;9.796;2022-08-25T08:34:49;28.30;1.00
6174;DHT22;3120;48.796;9.796;2022-08-25T08:37:15;28.10;1.00
6174;DHT22;3120;48.796;9.796;2022-08-25T08:39:41;27.90;40.90
6174;DHT22;3120;48.796;9.796;2022-08-25T08:42:35;27.80;18.80
6174;DHT22;3120;48.796;9.796;2022-08-25T08:45:27;27.90;1.00
6174;DHT22;3120;48.796;9.796;2022-08-25T08:48:02;27.60;55.80
6174;DHT22;3120;48.796;9.796;2022-08-25T08:56:33;27.50;1.00
6174;DHT22;3120;48.796;9.796;2022-08-25T08:59:09;27.50;65.30
6174;DHT22;3120;48.796;9.796;2022-08-25T09:01:48;27.60;31.20
6174;DHT22;3120;48.796;9.796;2022-08-25T09:04:28;27.50;20.70
6174;DHT22;3120;48.796;9.796;2022-08-25T09:06:56;27.60;21.80
6174;DHT22;3120;48.796;9.796;2022-08-25T09:09:28;27.50;1.00
6174;DHT22;3120;48.796;9.796;2022-08-25T09:17:50;27.60;2.10
6174;DHT22;3120;48.796;9.796;2022-08-25T09:26:33;27.90;1.00
6174;DHT22;3120;48.796;9.796;2022-08-25T09:29:07;28.20;1.00
6174;DHT22;3120;48.796;9.796;2022-08-25T09:31:36;28.40;1.00
6174;DHT22;3120;48.796;9.796;2022-08-25T09:34:05;28.10;1.00
6174;DHT22;3120;48.796;9.796;2022-08-25T09:36:32;28.10;1.00
6174;DHT22;3120;48.796;9.796;2022-08-25T09:38:58;28.20;1.00
6174;DHT22;3120;48.796;9.796;2022-08-25T09:41:49;28.30;1.00
6174;DHT22;3120;48.796;9.796;2022-08-25T09:44:31;28.40;1.00
6174;DHT22;3120;48.796;9.796;2022-08-25T09:47:01;28.40;1.00
6174;DHT22;3120;48.796;9.796;2022-08-25T09:49:34;28.50;1.00
6174;DHT22;3120;48.796;9.796;2022-08-25T09:52:25;28.40;1.00
6174;DHT22;3120;48.796;9.796;2022-08-25T10:00:15;28.50;1.00
6174;DHT22;3120;48.796;9.796;2022-08-25T10:02:45;28.70;1.00
6174;DHT22;3120;48.796;9.796;2022-08-25T10:05:25;28.70;1.00
6174;DHT22;3120;48.796;9.796;2022-08-25T10:07:59;28.60;1.00
6174;DHT22;3120;48.796;9.796;2022-08-25T10:10:34;28.70;1.00
6174;DHT22;3120;48.796;9.796;2022-08-25T10:13:17;28.60;1.00
6174;DHT22;3120;48.796;9.796;2022-08-25T10:15:42;28.90;1.00
6174;DHT22;3120;48.796;9.796;2022-08-25T10:21:08;28.50;1.00
6174;DHT22;3120;48.796;9.796;2022-08-25T10:23:37;28.40;1.00
6174;DHT22;3120;48.796;9.796;2022-08-25T10:26:57;28.30;1.00
6174;DHT22;3120;48.796;9.796;2022-08-25T10:32:17;28.60;1.00
6174;DHT22;3120;48.796;9.796;2022-08-25T10:34:53;28.80;1.00
6174;DHT22;3120;48.796;9.796;2022-08-25T10:37:30;28.80;1.00
6174;DHT22;3120;48.796;9.796;2022-08-25T10:40:22;29.10;1.00
6174;DHT22;3120;48.796;9.796;2022-08-25T10:45:26;29.30;1.00
6174;DHT22;3120;48.796;9.796;2022-08-25T10:53:54;29.50;1.00
6174;DHT22;3120;48.796;9.796;2022-08-25T10:56:34;29.60;1.00
6174;DHT22;3120;48.796;9.796;2022-08-25T11:02:35;29.70;1.00
6174;DHT22;3120;48.796;9.796;2022-08-25T11:05:11;30.00;1.00
6174;DHT22;3120;48.796;9.796;2022-08-25T11:07:48;30.00;1.00
6174;DHT22;3120;48.796;9.796;2022-08-25T11:10:24;30.10;1.00
6174;DHT22;3120;48.796;9.796;2022-08-25T11:12:54;30.00;1.00
6174;DHT22;3120;48.796;9.796;2022-08-25T11:15:32;30.10;1.00
6174;DHT22;3120;48.796;9.796;2022-08-25T11:18:06;29.60;1.00
6174;DHT22;3120;48.796;9.796;2022-08-25T11:20:40;29.10;1.00
6174;DHT22;3120;48.796;9.796;2022-08-25T11:26:10;28.30;1.00
6174;DHT22;3120;48.796;9.796;2022-08-25T11:31:23;28.10;1.00
6174;DHT22;3120;48.796;9.796;2022-08-25T11:33:50;28.10;1.00
6174;DHT22;3120;48.796;9.796;2022-08-25T11:36:34;27.90;1.00
6174;DHT22;3120;48.796;9.796;2022-08-25T11:39:20;27.60;1.00
6174;DHT22;3120;48.796;9.796;2022-08-25T11:44:38;28.20;1.00
6174;DHT22;3120;48.796;9.796;2022-08-25T11:49:58;28.30;1.00
6174;DHT22;3120;48.796;9.796;2022-08-25T11:52:40;28.60;1.00
6174;DHT22;3120;48.796;9.796;2022-08-25T11:55:14;28.60;1.00
6174;DHT22;3120;48.796;9.796;2022-08-25T11:57:42;28.60;1.00
6174;DHT22;3120;48.796;9.796;2022-08-25T12:00:56;28.40;1.00
6174;DHT22;3120;48.796;9.796;2022-08-25T12:02:57;28.30;1.00
6174;DHT22;3120;48.796;9.796;2022-08-25T12:08:06;28.30;1.00
6174;DHT22;3120;48.796;9.796;2022-08-25T12:13:43;28.60;1.00
6174;DHT22;3120;48.796;9.796;2022-08-25T12:21:52;29.10;1.00
6174;DHT22;3120;48.796;9.796;2022-08-25T12:24:21;29.20;1.00
6174;DHT22;3120;48.796;9.796;2022-08-25T12:27:00;29.30;1.00
6174;DHT22;3120;48.796;9.796;2022-08-25T12:29:48;29.20;1.00
6174;DHT22;3120;48.796;9.796;2022-08-25T12:32:28;29.20;1.00
6174;DHT22;3120;48.796;9.796;2022-08-25T12:38:02;29.50;1.00
6174;DHT22;3120;48.796;9.796;2022-08-25T12:40:36;29.50;1.00
6174;DHT22;3120;48.796;9.796;2022-08-25T12:43:27;29.40;1.00
6174;DHT22;3120;48.796;9.796;2022-08-25T12:45:53;29.20;1.00
6174;DHT22;3120;48.796;9.796;2022-08-25T12:51:16;29.20;1.00
6174;DHT22;3120;48.796;9.796;2022-08-25T12:56:24;29.10;1.00
6174;DHT22;3120;48.796;9.796;2022-08-25T12:59:10;29.10;1.00
6174;DHT22;3120;48.796;9.796;2022-08-25T13:01:51;29.10;1.00
6174;DHT22;3120;48.796;9.796;2022-08-25T13:04:32;29.20;1.00
6174;DHT22;3120;48.796;9.796;2022-08-25T13:10:27;29.20;1.00
6174;DHT22;3120;48.796;9.796;2022-08-25T13:15:46;29.10;1.00
6174;DHT22;3120;48.796;9.796;2022-08-25T13:18:27;29.10;1.00
6174;DHT22;3120;48.796;9.796;2022-08-25T13:23:34;28.80;1.00
6174;DHT22;3120;48.796;9.796;2022-08-25T13:26:01;28.70;1.00
6174;DHT22;3120;48.796;9.796;2022-08-25T13:28:33;28.70;1.00
6174;DHT22;3120;48.796;9.796;2022-08-25T13:31:16;28.80;1.00
6174;DHT22;3120;48.796;9.796;2022-08-25T13:33:59;28.90;1.00
6174;DHT22;3120;48.796;9.796;2022-08-25T13:36:28;28.00;1.00
6174;DHT22;3120;48.796;9.796;2022-08-25T13:39:17;28.90;1.00
6174;DHT22;3120;48.796;9.796;2022-08-25T13:41:47;28.80;1.00
6174;DHT22;3120;48.796;9.796;2022-08-25T13:44:14;28.70;1.00
6174;DHT22;3120;48.796;9.796;2022-08-25T13:46:40;28.50;1.00
6174;DHT22;3120;48.796;9.796;2022-08-25T13:49:08;28.40;1.00
6174;DHT22;3120;48.796;9.796;2022-08-25T13:51:35;28.40;1.00
6174;DHT22;3120;48.796;9.796;2022-08-25T13:54:04;28.40;1.00
6174;DHT22;3120;48.796;9.796;2022-08-25T13:56:38;28.30;1.00
6174;DHT22;3120;48.796;9.796;2022-08-25T13:59:24;28.30;1.00
6174;DHT22;3120;48.796;9.796;2022-08-25T14:01:53;28.10;1.00
6174;DHT22;3120;48.796;9.796;2022-08-25T14:07:06;28.00;1.00
6174;DHT22;3120;48.796;9.796;2022-08-25T14:10:00;28.20;1.00
6174;DHT22;3120;48.796;9.796;2022-08-25T14:12:41;28.40;1.00
6174;DHT22;3120;48.796;9.796;2022-08-25T14:17:45;28.30;1.00
6174;DHT22;3120;48.796;9.796;2022-08-25T14:20:22;28.20;1.00
6174;DHT22;3120;48.796;9.796;2022-08-25T14:22:56;28.10;1.00
6174;DHT22;3120;48.796;9.796;2022-08-25T14:25:23;28.00;1.00
6174;DHT22;3120;48.796;9.796;2022-08-25T14:28:01;28.10;1.00
6174;DHT22;3120;48.796;9.796;2022-08-25T14:30:29;28.10;1.00
6174;DHT22;3120;48.796;9.796;2022-08-25T14:32:56;28.20;1.00
6174;DHT22;3120;48.796;9.796;2022-08-25T14:35:23;28.40;1.00
6174;DHT22;3120;48.796;9.796;2022-08-25T14:37:48;28.60;1.00
6174;DHT22;3120;48.796;9.796;2022-08-25T14:40:14;28.60;1.00
6174;DHT22;3120;48.796;9.796;2022-08-25T14:42:45;28.60;1.00
6174;DHT22;3120;48.796;9.796;2022-08-25T14:45:13;28.70;1.00
6174;DHT22;3120;48.796;9.796;2022-08-25T14:47:39;28.70;1.00
6174;DHT22;3120;48.796;9.796;2022-08-25T14:50:05;28.80;1.00
6174;DHT22;3120;48.796;9.796;2022-08-25T14:52:31;28.90;1.00
6174;DHT22;3120;48.796;9.796;2022-08-25T14:54:57;28.90;1.00
6174;DHT22;3120;48.796;9.796;2022-08-25T14:57:24;29.00;1.00
6174;DHT22;3120;48.796;9.796;2022-08-25T14:59:50;29.00;1.00
6174;DHT22;3120;48.796;9.796;2022-08-25T15:02:17;29.00;1.00
6174;DHT22;3120;48.796;9.796;2022-08-25T15:04:53;29.00;1.00
6174;DHT22;3120;48.796;9.796;2022-08-25T15:07:19;29.10;1.00
6174;DHT22;3120;48.796;9.796;2022-08-25T15:10:04;29.10;1.00
6174;DHT22;3120;48.796;9.796;2022-08-25T15:12:32;28.90;1.00
6174;DHT22;3120;48.796;9.796;2022-08-25T15:14:58;28.90;1.00
6174;DHT22;3120;48.796;9.796;2022-08-25T15:17:27;28.70;1.00
6174;DHT22;3120;48.796;9.796;2022-08-25T15:19:52;28.60;1.00
6174;DHT22;3120;48.796;9.796;2022-08-25T15:22:18;28.40;1.00
6174;DHT22;3120;48.796;9.796;2022-08-25T15:24:44;28.20;1.00
6174;DHT22;3120;48.796;9.796;2022-08-25T15:27:11;28.10;1.00
6174;DHT22;3120;48.796;9.796;2022-08-25T15:29:37;28.00;1.00
6174;DHT22;3120;48.796;9.796;2022-08-25T15:32:06;27.90;1.00
6174;DHT22;3120;48.796;9.796;2022-08-25T15:34:32;27.80;1.00
6174;DHT22;3120;48.796;9.796;2022-08-25T15:37:06;27.70;1.00
6174;DHT22;3120;48.796;9.796;2022-08-25T15:39:31;27.70;1.00
6174;DHT22;3120;48.796;9.796;2022-08-25T15:41:57;27.60;1.00
6174;DHT22;3120;48.796;9.796;2022-08-25T15:44:23;27.50;1.00
6174;DHT22;3120;48.796;9.796;2022-08-25T15:46:51;27.50;1.00
6174;DHT22;3120;48.796;9.796;2022-08-25T15:49:18;27.50;1.00
6174;DHT22;3120;48.796;9.796;2022-08-25T15:51:43;27.60;1.00
6174;DHT22;3120;48.796;9.796;2022-08-25T15:54:10;27.60;1.00
6174;DHT22;3120;48.796;9.796;2022-08-25T15:56:35;27.80;1.00
6174;DHT22;3120;48.796;9.796;2022-08-25T15:59:02;27.90;1.00
6174;DHT22;3120;48.796;9.796;2022-08-25T16:01:28;28.00;1.00
6174;DHT22;3120;48.796;9.796;2022-08-25T16:03:55;28.20;1.00
6174;DHT22;3120;48.796;9.796;2022-08-25T16:06:22;28.30;1.00
6174;DHT22;3120;48.796;9.796;2022-08-25T16:08:48;28.40;1.00
6174;DHT22;3120;48.796;9.796;2022-08-25T16:11:20;28.60;1.00
6174;DHT22;3120;48.796;9.796;2022-08-25T16:13:47;28.50;1.00
6174;DHT22;3120;48.796;9.796;2022-08-25T16:16:17;28.60;1.00
6174;DHT22;3120;48.796;9.796;2022-08-25T16:18:43;28.50;1.00
6174;DHT22;3120;48.796;9.796;2022-08-25T16:21:11;28.40;1.00
6174;DHT22;3120;48.796;9.796;2022-08-25T16:23:38;28.30;1.00
6174;DHT22;3120;48.796;9.796;2022-08-25T16:26:06;28.30;1.00
6174;DHT22;3120;48.796;9.796;2022-08-25T16:28:34;28.20;1.00
6174;DHT22;3120;48.796;9.796;2022-08-25T16:31:00;28.10;1.00
6174;DHT22;3120;48.796;9.796;2022-08-25T16:33:25;27.90;1.00
6174;DHT22;3120;48.796;9.796;2022-08-25T16:35:51;27.90;1.00
6174;DHT22;3120;48.796;9.796;2022-08-25T16:38:17;27.80;1.00
6174;DHT22;3120;48.796;9.796;2022-08-25T16:40:44;27.80;1.00
6174;DHT22;3120;48.796;9.796;2022-08-25T16:43:10;27.60;1.00
6174;DHT22;3120;48.796;9.796;2022-08-25T16:45:37;27.50;1.00
6174;DHT22;3120;48.796;9.796;2022-08-25T16:48:04;27.50;1.00
6174;DHT22;3120;48.796;9.796;2022-08-25T16:50:30;27.50;1.00
6174;DHT22;3120;48.796;9.796;2022-08-25T16:52:57;27.60;1.00
6174;DHT22;3120;48.796;9.796;2022-08-25T16:55:42;27.60;1.00
6174;DHT22;3120;48.796;9.796;2022-08-25T16:58:08;27.70;1.00
6174;DHT22;3120;48.796;9.796;2022-08-25T17:00:35;27.70;1.00
6174;DHT22;3120;48.796;9.796;2022-08-25T17:03:02;27.70;1.00
6174;DHT22;3120;48.796;9.796;2022-08-25T17:05:32;27.70;1.00
6174;DHT22;3120;48.796;9.796;2022-08-25T17:08:03;27.80;1.00
6174;DHT22;3120;48.796;9.796;2022-08-25T17:11:09;27.70;1.00
6174;DHT22;3120;48.796;9.796;2022-08-25T17:13:38;27.50;1.00
6174;DHT22;3120;48.796;9.796;2022-08-25T17:16:04;27.40;1.00
6174;DHT22;3120;48.796;9.796;2022-08-25T17:18:30;27.30;1.00
6174;DHT22;3120;48.796;9.796;2022-08-25T17:21:00;27.20;1.00
6174;DHT22;3120;48.796;9.796;2022-08-25T17:23:26;27.10;1.00
6174;DHT22;3120;48.796;9.796;2022-08-25T17:25:52;27.20;1.00
6174;DHT22;3120;48.796;9.796;2022-08-25T17:28:18;27.20;1.00
6174;DHT22;3120;48.796;9.796;2022-08-25T17:30:44;27.10;1.00
6174;DHT22;3120;48.796;9.796;2022-08-25T17:33:11;27.00;1.00
6174;DHT22;3120;48.796;9.796;2022-08-25T17:35:43;26.90;1.00
6174;DHT22;3120;48.796;9.796;2022-08-25T17:38:10;26.90;1.00
6174;DHT22;3120;48.796;9.796;2022-08-25T17:40:37;26.80;1.00
6174;DHT22;3120;48.796;9.796;2022-08-25T17:43:03;26.90;1.00
6174;DHT22;3120;48.796;9.796;2022-08-25T17:45:29;26.80;1.00
6174;DHT22;3120;48.796;9.796;2022-08-25T17:47:55;26.70;1.00
6174;DHT22;3120;48.796;9.796;2022-08-25T17:50:20;26.60;1.00
6174;DHT22;3120;48.796;9.796;2022-08-25T17:52:46;26.50;1.00